Time;durP1;ratioP1;P1;durP2;ratioP2;P2;SDS_P1;SDS_P2;PMS_P1;PMS_P2;Temp;Humidity;BMP_temperature;BMP_pressure;BME280_temperature;BME280_humidity;BME280_pressure;Samples;Min_cycle;Max_cycle;Signal;HPM_P1;HPM_P2
2022/01/10 00:00:50;;;;;;;14.63;4.80;;;6.00;99.90;;;;;;5056611;28;20472;-48
2022/01/10 00:03:22;;;;;;;9.47;4.00;;;6.10;99.90;;;;;;5056721;28;20464;-47
2022/01/10 00:05:48;;;;;;;5.40;4.00;;;6.10;99.90;;;;;;5056747;28;20443;-47
2022/01/10 00:08:17;;;;;;;9.10;4.70;;;6.10;99.90;;;;;;5056126;28;20457;-51
2022/01/10 00:10:46;;;;;;;9.23;3.57;;;6.10;99.90;;;;;;5057275;28;20433;-49
2022/01/10 00:13:15;;;;;;;9.93;3.77;;;6.20;99.90;;;;;;5056855;28;20437;-50
2022/01/10 00:15:44;;;;;;;8.73;4.80;;;6.20;99.90;;;;;;5056292;28;20472;-48
2022/01/10 00:18:11;;;;;;;14.33;4.07;;;6.20;99.90;;;;;;5056661;28;20445;-50
2022/01/10 00:20:38;;;;;;;7.97;5.37;;;6.20;99.90;;;;;;5056789;28;20451;-54
2022/01/10 00:23:05;;;;;;;9.23;3.90;;;6.20;99.90;;;;;;5057072;28;20456;-47
2022/01/10 00:25:41;;;;;;;7.93;3.93;;;6.20;99.90;;;;;;5057044;28;20463;-45
2022/01/10 00:28:08;;;;;;;6.27;3.43;;;6.20;99.90;;;;;;5056201;28;20476;-49
2022/01/10 00:30:35;;;;;;;11.07;4.60;;;6.10;99.90;;;;;;5056183;28;20433;-49
2022/01/10 00:33:02;;;;;;;5.10;3.33;;;6.00;99.90;;;;;;5056225;28;20483;-48
2022/01/10 00:35:29;;;;;;;6.70;3.37;;;6.00;99.90;;;;;;5056390;28;20464;-50
2022/01/10 00:37:58;;;;;;;6.57;2.83;;;6.00;99.90;;;;;;5056346;28;20437;-52
2022/01/10 00:40:25;;;;;;;13.33;4.00;;;5.90;99.90;;;;;;5055932;28;20465;-49
2022/01/10 00:42:55;;;;;;;9.43;4.90;;;5.90;99.90;;;;;;5056396;28;20437;-50
2022/01/10 00:45:26;;;;;;;8.20;4.53;;;5.90;99.90;;;;;;5055351;28;20487;-48
2022/01/10 00:47:55;;;;;;;10.90;4.73;;;5.90;99.90;;;;;;5055465;28;20508;-50
2022/01/10 00:50:29;;;;;;;10.90;4.03;;;5.90;99.90;;;;;;5056584;28;20437;-50
2022/01/10 00:52:57;;;;;;;7.03;5.13;;;5.90;99.90;;;;;;5056314;28;20489;-53
2022/01/10 00:55:25;;;;;;;8.53;4.37;;;5.90;99.90;;;;;;5056392;28;20476;-57
2022/01/10 00:57:53;;;;;;;9.70;4.90;;;5.90;99.90;;;;;;5056739;28;20477;-53
2022/01/10 01:00:22;;;;;;;5.03;3.83;;;5.90;99.90;;;;;;5056363;28;20418;-51
2022/01/10 01:02:49;;;;;;;6.27;4.17;;;5.90;99.90;;;;;;5056541;28;20417;-53
2022/01/10 01:05:19;;;;;;;5.43;3.83;;;5.90;99.90;;;;;;5056194;28;20461;-49
2022/01/10 01:07:45;;;;;;;33.83;6.10;;;5.90;99.90;;;;;;5055852;28;20429;-50
2022/01/10 01:13:08;;;;;;;4.27;2.60;;;5.90;99.90;;;;;;5048552;28;20449;-47
2022/01/10 01:15:45;;;;;;;5.97;3.10;;;5.90;99.90;;;;;;5055555;28;20499;-50
2022/01/10 01:18:19;;;;;;;7.30;3.43;;;5.90;99.90;;;;;;5056084;28;20425;-51
2022/01/10 01:24:01;;;;;;;4.60;3.93;;;5.90;99.90;;;;;;5055942;28;20437;-53
2022/01/10 01:26:18;;;;;;;7.23;3.50;;;5.90;99.90;;;;;;5055688;28;20444;-49
2022/01/10 01:28:47;;;;;;;6.93;3.70;;;5.80;99.90;;;;;;5055395;28;20472;-53
2022/01/10 01:31:14;;;;;;;7.03;3.60;;;5.80;99.90;;;;;;5055732;28;20437;-53
2022/01/10 01:33:41;;;;;;;6.17;5.23;;;5.80;99.90;;;;;;5055489;28;20440;-48
2022/01/10 01:36:10;;;;;;;7.50;3.60;;;5.80;99.90;;;;;;5054892;28;20449;-50
2022/01/10 01:38:39;;;;;;;7.40;4.50;;;5.80;99.90;;;;;;5054746;28;20471;-48
2022/01/10 01:41:23;;;;;;;7.50;4.67;;;5.80;99.90;;;;;;5054813;28;20538;-47
2022/01/10 01:43:53;;;;;;;6.50;3.83;;;5.80;99.90;;;;;;5054752;28;20496;-49
2022/01/10 01:46:20;;;;;;;5.97;2.83;;;5.90;99.90;;;;;;5054823;28;20441;-51
2022/01/10 01:48:51;;;;;;;8.23;4.17;;;5.90;99.90;;;;;;5054334;28;20459;-50
2022/01/10 01:51:18;;;;;;;8.87;4.60;;;5.90;99.90;;;;;;5054983;28;20425;-47
2022/01/10 01:53:46;;;;;;;5.63;3.10;;;6.00;99.90;;;;;;5054350;28;20461;-52
2022/01/10 01:56:13;;;;;;;6.23;3.37;;;5.90;99.90;;;;;;5055051;28;20440;-51
2022/01/10 01:58:41;;;;;;;8.83;4.10;;;6.00;99.90;;;;;;5054376;28;20476;-50
2022/01/10 02:01:10;;;;;;;7.43;3.50;;;6.00;99.90;;;;;;5054861;28;20445;-45
2022/01/10 02:03:41;;;;;;;8.40;4.33;;;6.00;99.90;;;;;;5054663;28;20471;-50
2022/01/10 02:06:11;;;;;;;5.60;4.70;;;6.00;99.90;;;;;;5054882;28;20631;-47
2022/01/10 02:08:39;;;;;;;11.83;4.13;;;6.00;99.90;;;;;;5054231;28;20475;-52
2022/01/10 02:11:08;;;;;;;6.17;3.03;;;6.10;99.90;;;;;;5054386;28;20503;-50
2022/01/10 02:13:35;;;;;;;8.67;4.47;;;6.00;99.90;;;;;;5054369;28;20448;-47
2022/01/10 02:16:05;;;;;;;9.97;4.77;;;6.10;99.90;;;;;;5054179;28;20485;-50
2022/01/10 02:18:35;;;;;;;12.70;3.43;;;6.10;99.90;;;;;;5054370;28;20445;-50
2022/01/10 02:21:05;;;;;;;5.90;4.10;;;6.10;99.90;;;;;;5054509;28;20417;-46
2022/01/10 02:23:32;;;;;;;3.30;3.00;;;6.10;99.90;;;;;;5054362;28;20464;-51
2022/01/10 02:25:59;;;;;;;4.30;3.43;;;6.10;99.90;;;;;;5054278;28;20425;-50
2022/01/10 02:28:28;;;;;;;8.67;4.00;;;6.20;99.90;;;;;;5054051;28;20441;-50
2022/01/10 02:30:57;;;;;;;8.37;3.23;;;6.20;99.90;;;;;;5056851;28;20452;-53
2022/01/10 02:33:24;;;;;;;10.23;4.53;;;6.10;99.90;;;;;;5058648;28;20449;-44
2022/01/10 02:36:01;;;;;;;8.63;4.53;;;6.20;99.90;;;;;;5057894;28;20502;-48
2022/01/10 02:38:29;;;;;;;14.90;4.47;;;6.20;99.90;;;;;;5058841;28;20409;-49
2022/01/10 02:40:57;;;;;;;8.43;3.60;;;6.20;99.90;;;;;;5057819;28;20472;-47
2022/01/10 02:43:24;;;;;;;12.87;4.17;;;6.10;99.90;;;;;;5058323;28;20451;-51
2022/01/10 02:45:51;;;;;;;4.80;3.27;;;6.10;99.90;;;;;;5058259;28;20437;-52
2022/01/10 02:48:17;;;;;;;11.57;3.47;;;6.10;99.90;;;;;;5057918;28;20495;-49
2022/01/10 02:50:44;;;;;;;6.67;3.63;;;6.20;99.90;;;;;;5058381;28;20455;-51
2022/01/10 02:53:11;;;;;;;8.13;4.40;;;6.20;99.90;;;;;;5058130;28;20723;-47
2022/01/10 02:55:39;;;;;;;5.73;3.70;;;6.20;99.90;;;;;;5057699;28;20518;-50
2022/01/10 02:58:08;;;;;;;16.70;4.23;;;6.20;99.90;;;;;;5057649;28;20487;-51
2022/01/10 03:00:35;;;;;;;7.07;3.90;;;6.30;99.90;;;;;;5057738;28;20468;-52
2022/01/10 03:03:06;;;;;;;6.37;4.20;;;6.20;99.90;;;;;;5058022;28;20440;-50
2022/01/10 03:05:38;;;;;;;8.47;4.10;;;6.10;99.90;;;;;;5057463;28;20479;-51
2022/01/10 03:08:06;;;;;;;11.13;3.87;;;6.10;99.90;;;;;;5057743;28;20444;-49
2022/01/10 03:10:33;;;;;;;4.20;2.50;;;6.20;99.90;;;;;;5057126;28;20453;-51
2022/01/10 03:13:03;;;;;;;6.37;3.70;;;6.20;99.90;;;;;;5057426;28;20460;-47
2022/01/10 03:15:31;;;;;;;17.60;3.73;;;6.10;99.90;;;;;;5057279;28;20472;-47
2022/01/10 03:17:58;;;;;;;6.77;3.07;;;6.20;99.90;;;;;;5057311;28;20492;-51
2022/01/10 03:20:25;;;;;;;7.67;3.20;;;6.20;99.90;;;;;;5057508;28;20456;-50
2022/01/10 03:22:54;;;;;;;5.17;3.63;;;6.20;99.90;;;;;;5057158;28;20615;-50
2022/01/10 03:25:21;;;;;;;5.40;2.77;;;6.20;99.90;;;;;;5057997;28;20430;-49
2022/01/10 03:27:48;;;;;;;12.60;4.10;;;6.20;99.90;;;;;;5057431;28;20425;-49
2022/01/10 03:30:16;;;;;;;4.30;2.87;;;6.20;99.90;;;;;;5057561;28;20472;-50
2022/01/10 03:32:44;;;;;;;5.90;3.90;;;6.30;99.90;;;;;;5057882;28;20463;-47
2022/01/10 03:35:13;;;;;;;25.80;4.40;;;6.20;99.90;;;;;;5057740;28;20511;-55
2022/01/10 03:37:39;;;;;;;7.30;3.23;;;6.30;99.90;;;;;;5057590;28;20470;-51
2022/01/10 03:40:07;;;;;;;11.27;3.60;;;6.20;99.90;;;;;;5057994;28;20437;-52
2022/01/10 03:42:34;;;;;;;8.33;3.00;;;6.20;99.90;;;;;;5056539;28;20494;-48
2022/01/10 03:45:02;;;;;;;7.47;3.60;;;6.20;99.90;;;;;;5056893;28;20468;-52
2022/01/10 03:47:30;;;;;;;8.63;4.43;;;6.30;99.90;;;;;;5057398;28;20467;-48
2022/01/10 03:49:58;;;;;;;10.80;4.37;;;6.30;99.90;;;;;;5056931;28;20452;-48
2022/01/10 03:52:25;;;;;;;5.87;3.77;;;6.30;99.90;;;;;;5056892;28;20440;-49
2022/01/10 03:54:52;;;;;;;7.90;3.10;;;6.20;99.90;;;;;;5056554;28;20540;-51
2022/01/10 03:57:19;;;;;;;8.10;3.33;;;6.20;99.90;;;;;;5056547;28;20477;-50
2022/01/10 03:59:45;;;;;;;5.27;3.37;;;6.20;99.90;;;;;;5057179;28;20852;-47
2022/01/10 04:02:12;;;;;;;10.10;4.63;;;6.20;99.90;;;;;;5056866;28;20479;-52
2022/01/10 04:04:40;;;;;;;7.57;4.40;;;6.20;99.90;;;;;;5056726;28;20453;-51
2022/01/10 04:07:12;;;;;;;9.10;3.60;;;6.20;99.90;;;;;;5056850;28;20571;-50
2022/01/10 04:09:39;;;;;;;14.03;4.70;;;6.20;99.90;;;;;;5057132;28;20433;-50
2022/01/10 04:12:07;;;;;;;6.90;4.00;;;6.20;99.90;;;;;;5056972;28;20441;-49
2022/01/10 04:14:34;;;;;;;7.67;3.27;;;6.20;99.90;;;;;;5057125;28;20442;-50
2022/01/10 04:17:01;;;;;;;14.33;3.80;;;6.20;99.90;;;;;;5057411;28;20449;-47
2022/01/10 04:19:27;;;;;;;6.97;3.33;;;6.20;99.90;;;;;;5056464;28;20465;-48
2022/01/10 04:21:55;;;;;;;8.00;3.23;;;6.20;99.90;;;;;;5056305;28;20448;-50
2022/01/10 04:24:22;;;;;;;12.90;3.23;;;6.10;99.90;;;;;;5055926;28;20440;-50
2022/01/10 04:26:49;;;;;;;17.20;6.23;;;6.10;99.90;;;;;;5055988;28;20417;-47
2022/01/10 04:29:15;;;;;;;4.50;3.03;;;6.10;99.90;;;;;;5056283;28;20458;-49
2022/01/10 04:31:42;;;;;;;8.27;3.67;;;6.10;99.90;;;;;;5055857;28;20479;-49
2022/01/10 04:34:09;;;;;;;4.97;3.17;;;6.10;99.90;;;;;;5056117;28;20437;-50
2022/01/10 04:36:36;;;;;;;4.63;3.90;;;6.10;99.90;;;;;;5055827;28;20484;-51
2022/01/10 04:39:04;;;;;;;10.10;4.40;;;6.10;99.90;;;;;;5056173;28;20430;-48
2022/01/10 04:41:32;;;;;;;13.50;5.03;;;6.10;99.90;;;;;;5055444;28;20426;-50
2022/01/10 04:43:58;;;;;;;6.50;4.07;;;6.10;99.90;;;;;;5055551;28;20481;-51
2022/01/10 04:46:25;;;;;;;10.97;4.87;;;6.10;99.90;;;;;;5055457;28;20448;-47
2022/01/10 04:48:52;;;;;;;7.53;3.67;;;6.20;99.90;;;;;;5055404;28;20483;-51
2022/01/10 04:51:20;;;;;;;9.63;3.80;;;6.10;99.90;;;;;;5055787;28;20441;-50
2022/01/10 04:53:49;;;;;;;6.47;3.40;;;6.20;99.90;;;;;;5055545;28;20508;-49
2022/01/10 04:56:19;;;;;;;19.47;3.97;;;6.20;99.90;;;;;;5055215;28;20488;-50
2022/01/10 04:58:46;;;;;;;13.13;3.60;;;6.10;99.90;;;;;;5054950;28;20467;-50
2022/01/10 05:01:14;;;;;;;4.90;3.60;;;6.20;99.90;;;;;;5054949;28;20494;-49
2022/01/10 05:03:41;;;;;;;5.23;4.30;;;6.20;99.90;;;;;;5055244;28;20437;-50
2022/01/10 05:06:09;;;;;;;5.47;3.87;;;6.10;99.90;;;;;;5055147;28;20433;-46
2022/01/10 05:08:36;;;;;;;7.67;3.43;;;6.10;99.90;;;;;;5055290;28;20440;-48
2022/01/10 05:11:02;;;;;;;9.87;4.57;;;6.10;99.90;;;;;;5055565;28;20433;-47
2022/01/10 05:13:30;;;;;;;11.70;3.40;;;6.20;99.90;;;;;;5055967;28;20484;-51
2022/01/10 05:15:57;;;;;;;10.33;4.47;;;6.20;99.90;;;;;;5055601;28;20480;-53
2022/01/10 05:18:24;;;;;;;10.13;3.30;;;6.20;99.90;;;;;;5055924;28;20508;-52
2022/01/10 05:20:52;;;;;;;6.20;3.63;;;6.10;99.90;;;;;;5056447;28;20444;-54
2022/01/10 05:23:19;;;;;;;5.73;3.87;;;6.10;99.90;;;;;;5056319;28;20448;-52
2022/01/10 05:25:46;;;;;;;9.37;3.90;;;6.10;99.90;;;;;;5055338;28;20460;-53
2022/01/10 05:28:17;;;;;;;7.33;4.30;;;6.10;99.90;;;;;;5055655;28;20467;-50
2022/01/10 05:30:45;;;;;;;5.53;3.63;;;6.10;99.90;;;;;;5055513;28;20539;-46
2022/01/10 05:33:13;;;;;;;5.20;3.17;;;6.20;99.90;;;;;;5055312;28;20447;-50
2022/01/10 05:35:40;;;;;;;7.17;4.50;;;6.20;99.90;;;;;;5055163;28;20508;-52
2022/01/10 05:38:09;;;;;;;5.87;4.10;;;6.20;99.90;;;;;;5055169;28;20469;-53
2022/01/10 05:40:35;;;;;;;12.30;5.90;;;6.20;99.90;;;;;;5054824;28;20445;-51
2022/01/10 05:43:04;;;;;;;11.17;4.43;;;6.20;99.90;;;;;;5055576;28;20458;-48
2022/01/10 05:45:30;;;;;;;5.93;4.50;;;6.20;99.90;;;;;;5054774;28;20437;-46
2022/01/10 05:48:07;;;;;;;7.30;4.07;;;6.20;99.90;;;;;;5055173;28;20924;-48
2022/01/10 05:50:35;;;;;;;6.73;2.93;;;6.20;99.90;;;;;;5054906;28;20483;-50
2022/01/10 05:53:02;;;;;;;6.77;3.93;;;6.20;99.90;;;;;;5054892;28;20475;-48
2022/01/10 05:55:31;;;;;;;8.43;4.47;;;6.20;99.90;;;;;;5054474;28;20554;-48
2022/01/10 05:57:58;;;;;;;5.00;2.80;;;6.20;99.90;;;;;;5054964;28;20612;-50
2022/01/10 06:00:25;;;;;;;11.83;5.10;;;6.20;99.90;;;;;;5054519;28;20492;-48
2022/01/10 06:02:52;;;;;;;10.07;4.70;;;6.20;99.90;;;;;;5054465;28;20449;-48
2022/01/10 06:05:20;;;;;;;7.50;3.83;;;6.20;99.90;;;;;;5057526;28;20920;-51
2022/01/10 06:07:46;;;;;;;7.33;4.20;;;6.20;99.90;;;;;;5061143;28;20522;-47
2022/01/10 06:10:13;;;;;;;8.20;4.27;;;6.20;99.90;;;;;;5061544;28;20483;-51
2022/01/10 06:12:40;;;;;;;12.17;4.77;;;6.20;99.90;;;;;;5061017;28;20531;-50
2022/01/10 06:15:07;;;;;;;7.67;3.13;;;6.20;99.90;;;;;;5061463;28;20444;-52
2022/01/10 06:17:34;;;;;;;7.87;3.33;;;6.20;99.90;;;;;;5061269;28;20444;-51
2022/01/10 06:20:03;;;;;;;12.60;5.50;;;6.20;99.90;;;;;;5060525;28;20472;-51
2022/01/10 06:22:32;;;;;;;8.80;5.90;;;6.20;99.90;;;;;;5061209;28;20449;-52
2022/01/10 06:24:59;;;;;;;9.80;4.83;;;6.30;99.90;;;;;;5060936;28;20522;-50
2022/01/10 06:27:26;;;;;;;13.57;5.57;;;6.30;99.90;;;;;;5060929;28;20421;-46
2022/01/10 06:29:56;;;;;;;8.40;4.27;;;6.30;99.90;;;;;;5060915;28;20444;-50
2022/01/10 06:32:23;;;;;;;6.00;3.90;;;6.30;99.90;;;;;;5060948;28;20449;-50
2022/01/10 06:34:52;;;;;;;9.67;5.37;;;6.30;99.90;;;;;;5061019;28;20440;-46
2022/01/10 06:37:21;;;;;;;11.03;3.70;;;6.30;99.90;;;;;;5060680;28;20480;-51
2022/01/10 06:39:49;;;;;;;13.53;3.97;;;6.20;99.90;;;;;;5060495;28;20454;-50
2022/01/10 06:42:16;;;;;;;10.67;4.73;;;6.20;99.90;;;;;;5060603;28;20498;-49
2022/01/10 06:44:43;;;;;;;7.30;3.73;;;6.20;99.90;;;;;;5061313;28;20440;-49
2022/01/10 06:47:10;;;;;;;6.40;3.70;;;6.20;99.90;;;;;;5060962;28;20467;-50
2022/01/10 06:49:36;;;;;;;7.07;4.27;;;6.30;99.90;;;;;;5061099;28;20506;-49
2022/01/10 06:52:04;;;;;;;7.10;4.50;;;6.30;99.90;;;;;;5061006;28;20459;-48
2022/01/10 06:54:33;;;;;;;5.83;2.87;;;6.20;99.90;;;;;;5061059;28;20458;-48
2022/01/10 06:57:03;;;;;;;16.10;5.23;;;6.20;99.90;;;;;;5060775;28;20489;-45
2022/01/10 06:59:31;;;;;;;9.03;4.50;;;6.30;99.90;;;;;;5061450;28;20441;-50
2022/01/10 07:02:00;;;;;;;10.33;4.73;;;6.20;99.90;;;;;;5061011;28;20568;-48
2022/01/10 07:04:28;;;;;;;8.77;3.50;;;6.30;99.90;;;;;;5060836;28;20802;-46
2022/01/10 07:06:57;;;;;;;10.03;4.00;;;6.30;99.90;;;;;;5061412;28;20460;-46
2022/01/10 07:09:23;;;;;;;9.03;4.47;;;6.30;99.90;;;;;;5061164;28;20433;-51
2022/01/10 07:11:50;;;;;;;8.27;4.37;;;6.30;99.90;;;;;;5061511;28;20456;-47
2022/01/10 07:14:20;;;;;;;5.80;3.90;;;6.20;99.90;;;;;;5061600;28;20432;-52
2022/01/10 07:16:49;;;;;;;11.43;3.23;;;6.30;99.90;;;;;;5058128;28;20492;-52
2022/01/10 07:19:16;;;;;;;19.80;4.00;;;6.30;99.90;;;;;;5057771;28;20453;-54
2022/01/10 07:21:44;;;;;;;9.37;3.90;;;6.30;99.90;;;;;;5057255;28;20445;-53
2022/01/10 07:24:11;;;;;;;12.63;4.10;;;6.40;99.90;;;;;;5039881;28;20470;-51
2022/01/10 07:26:38;;;;;;;7.70;3.57;;;6.30;99.90;;;;;;5043044;28;20523;-52
2022/01/10 07:29:07;;;;;;;9.13;5.37;;;6.40;99.90;;;;;;5043052;28;20925;-50
2022/01/10 07:31:35;;;;;;;7.47;3.00;;;6.40;99.90;;;;;;5042981;28;20465;-54
2022/01/10 07:34:02;;;;;;;15.90;4.43;;;6.40;99.90;;;;;;5043358;28;20444;-45
2022/01/10 07:36:28;;;;;;;6.83;3.63;;;6.40;99.90;;;;;;5043332;28;20484;-50
2022/01/10 07:38:55;;;;;;;6.37;3.30;;;6.30;99.90;;;;;;5043300;28;20471;-49
2022/01/10 07:41:22;;;;;;;7.83;4.37;;;6.40;99.90;;;;;;5045788;28;20440;-53
2022/01/10 07:43:49;;;;;;;15.50;4.63;;;6.40;99.90;;;;;;5056541;28;20467;-48
2022/01/10 07:46:15;;;;;;;7.93;5.07;;;6.30;99.90;;;;;;5060166;28;20496;-49
2022/01/10 07:48:44;;;;;;;8.43;4.00;;;6.30;99.90;;;;;;5063175;28;20495;-45
2022/01/10 07:51:12;;;;;;;4.30;3.80;;;6.20;99.90;;;;;;5062315;28;20451;-45
2022/01/10 07:53:41;;;;;;;6.43;3.60;;;6.20;99.90;;;;;;5052916;28;20473;-51
2022/01/10 07:56:11;;;;;;;8.50;4.77;;;6.10;99.90;;;;;;5044519;28;20518;-49
2022/01/10 07:58:38;;;;;;;8.70;4.53;;;6.10;99.90;;;;;;5042962;28;20512;-49
2022/01/10 08:01:05;;;;;;;5.37;3.83;;;6.10;99.90;;;;;;5043829;28;20449;-50
2022/01/10 08:03:32;;;;;;;15.83;5.70;;;6.10;99.90;;;;;;5043952;28;20440;-52
2022/01/10 08:06:00;;;;;;;13.93;5.87;;;6.10;99.90;;;;;;5043671;28;20444;-53
2022/01/10 08:08:26;;;;;;;8.97;5.00;;;6.10;99.90;;;;;;5043510;28;20444;-50
2022/01/10 08:10:53;;;;;;;8.00;5.83;;;6.10;99.90;;;;;;5043039;28;20530;-50
2022/01/10 08:13:20;;;;;;;10.93;4.73;;;6.20;99.90;;;;;;5042648;28;20507;-52
2022/01/10 08:15:46;;;;;;;7.23;3.80;;;6.20;99.90;;;;;;5042681;28;20534;-54
2022/01/10 08:18:15;;;;;;;8.67;5.30;;;6.20;99.90;;;;;;5043456;28;20441;-53
2022/01/10 08:20:43;;;;;;;11.33;5.07;;;6.20;99.90;;;;;;5043415;28;20479;-52
2022/01/10 08:23:12;;;;;;;8.57;5.27;;;6.10;99.90;;;;;;5043194;28;20528;-52
2022/01/10 08:25:39;;;;;;;7.50;4.77;;;6.20;99.90;;;;;;5042935;28;20463;-52
2022/01/10 08:28:06;;;;;;;5.57;3.83;;;6.20;99.90;;;;;;5043389;28;20437;-52
2022/01/10 08:30:33;;;;;;;21.73;6.50;;;6.20;99.90;;;;;;5043013;28;20533;-50
2022/01/10 08:33:01;;;;;;;9.47;5.37;;;6.20;99.90;;;;;;5042179;28;20465;-50
2022/01/10 08:35:28;;;;;;;9.40;4.87;;;6.20;99.90;;;;;;5042201;28;20441;-51
2022/01/10 08:37:55;;;;;;;12.30;4.30;;;6.20;99.90;;;;;;5042109;28;20543;-51
2022/01/10 08:40:23;;;;;;;11.00;5.80;;;6.20;99.90;;;;;;5042412;28;20425;-53
2022/01/10 08:42:50;;;;;;;5.80;4.13;;;6.30;99.90;;;;;;5041571;28;20453;-48
2022/01/10 08:45:17;;;;;;;10.60;4.90;;;6.30;99.90;;;;;;5041496;28;20445;-52
2022/01/10 08:47:45;;;;;;;18.73;4.20;;;6.30;99.90;;;;;;5041453;28;20483;-52
2022/01/10 08:50:12;;;;;;;7.97;4.27;;;6.40;99.90;;;;;;5041530;28;20946;-53
2022/01/10 08:52:40;;;;;;;12.47;5.50;;;6.40;99.90;;;;;;5040964;28;20902;-49
2022/01/10 08:55:08;;;;;;;8.33;4.47;;;6.40;99.90;;;;;;5040670;28;20499;-52
2022/01/10 08:57:36;;;;;;;6.90;3.83;;;6.50;99.90;;;;;;5041576;28;20503;-53
2022/01/10 09:00:04;;;;;;;8.70;4.07;;;6.50;99.90;;;;;;5041524;28;20476;-50
2022/01/10 09:02:33;;;;;;;6.83;4.50;;;6.50;99.90;;;;;;5042183;28;20433;-51
2022/01/10 09:05:03;;;;;;;13.10;4.97;;;6.50;99.90;;;;;;5041781;28;20472;-50
2022/01/10 09:07:30;;;;;;;8.93;4.97;;;6.50;99.90;;;;;;5041628;28;20823;-51
2022/01/10 09:09:57;;;;;;;12.03;4.60;;;6.50;99.90;;;;;;5041535;28;20781;-51
2022/01/10 09:12:25;;;;;;;7.90;3.90;;;6.50;99.90;;;;;;5042287;28;20468;-52
2022/01/10 09:14:53;;;;;;;8.50;5.10;;;6.40;99.90;;;;;;5041710;28;20556;-52
2022/01/10 09:17:22;;;;;;;9.10;4.20;;;6.40;99.90;;;;;;5042020;28;20491;-54
2022/01/10 09:19:48;;;;;;;9.23;4.50;;;6.40;99.90;;;;;;5041273;28;20454;-54
2022/01/10 09:22:15;;;;;;;7.97;3.60;;;6.30;99.90;;;;;;5041568;28;20522;-53
2022/01/10 09:24:46;;;;;;;10.07;4.90;;;6.30;99.90;;;;;;5041383;28;20796;-52
2022/01/10 09:27:13;;;;;;;11.80;4.40;;;6.40;99.90;;;;;;5041016;28;20429;-53
2022/01/10 09:29:40;;;;;;;14.40;5.60;;;6.40;99.90;;;;;;5040840;28;20469;-54
2022/01/10 09:32:08;;;;;;;10.70;4.30;;;6.50;99.90;;;;;;5040878;28;20457;-52
2022/01/10 09:34:35;;;;;;;9.10;5.40;;;6.50;99.90;;;;;;5041207;28;20465;-51
2022/01/10 09:37:02;;;;;;;7.10;4.47;;;6.50;99.90;;;;;;5040698;28;20789;-55
2022/01/10 09:39:29;;;;;;;9.07;4.20;;;6.50;99.90;;;;;;5039681;28;20469;-54
2022/01/10 09:41:57;;;;;;;9.33;4.57;;;6.60;99.90;;;;;;5040747;28;20433;-53
2022/01/10 09:44:27;;;;;;;9.17;5.33;;;6.70;99.90;;;;;;5040412;28;20448;-49
2022/01/10 09:46:55;;;;;;;13.33;4.90;;;6.70;99.90;;;;;;5040802;28;20429;-50
2022/01/10 09:49:23;;;;;;;5.57;3.60;;;6.70;99.90;;;;;;5039406;28;20448;-49
2022/01/10 09:51:50;;;;;;;8.27;4.17;;;6.70;99.90;;;;;;5039785;28;20449;-52
2022/01/10 09:54:20;;;;;;;11.80;4.40;;;6.80;99.90;;;;;;5040167;28;20463;-48
2022/01/10 09:56:49;;;;;;;9.40;4.60;;;6.80;99.90;;;;;;5039441;28;20561;-53
2022/01/10 09:59:16;;;;;;;6.70;3.50;;;6.80;99.90;;;;;;5039767;28;20431;-53
2022/01/10 10:01:49;;;;;;;11.13;4.53;;;6.80;99.90;;;;;;5039557;28;20464;-53
2022/01/10 10:04:16;;;;;;;7.53;3.07;;;6.90;99.90;;;;;;5039716;28;20420;-53
2022/01/10 10:06:48;;;;;;;14.03;5.60;;;6.90;99.90;;;;;;5039634;28;20472;-52
2022/01/10 10:09:17;;;;;;;11.57;5.00;;;6.90;99.90;;;;;;5039919;28;20499;-49
2022/01/10 10:11:46;;;;;;;9.80;4.07;;;6.90;99.90;;;;;;5039826;28;20452;-52
2022/01/10 10:14:17;;;;;;;16.27;5.37;;;7.00;99.90;;;;;;5039885;28;20456;-50
2022/01/10 10:16:49;;;;;;;7.87;4.97;;;7.00;99.90;;;;;;5039446;28;20472;-53
2022/01/10 10:19:17;;;;;;;16.40;5.63;;;7.00;99.90;;;;;;5039646;28;20487;-50
2022/01/10 10:21:45;;;;;;;10.70;5.13;;;7.00;99.90;;;;;;5039247;28;20465;-50
2022/01/10 10:24:13;;;;;;;12.10;5.63;;;7.10;99.90;;;;;;5039354;28;20469;-52
2022/01/10 10:26:40;;;;;;;10.80;4.90;;;7.00;99.90;;;;;;5039402;28;20409;-54
2022/01/10 10:29:09;;;;;;;7.10;5.13;;;7.00;99.90;;;;;;5039121;28;20817;-54
2022/01/10 10:31:38;;;;;;;7.33;4.70;;;7.00;99.90;;;;;;5038740;28;20918;-56
2022/01/10 10:34:08;;;;;;;15.23;4.60;;;7.00;99.90;;;;;;5039617;28;20444;-52
2022/01/10 10:36:36;;;;;;;14.67;4.57;;;7.10;99.90;;;;;;5038387;28;20472;-49
2022/01/10 10:39:07;;;;;;;11.23;4.97;;;7.10;99.90;;;;;;5039704;28;20502;-54
2022/01/10 10:41:35;;;;;;;14.20;5.20;;;7.10;99.90;;;;;;5039182;28;20499;-52
2022/01/10 10:44:08;;;;;;;10.30;4.67;;;7.10;99.90;;;;;;5038686;28;20449;-52
2022/01/10 10:46:36;;;;;;;6.70;4.10;;;7.10;99.90;;;;;;5038923;28;20487;-52
2022/01/10 10:49:04;;;;;;;8.60;4.60;;;7.00;99.90;;;;;;5038668;28;20439;-55
2022/01/10 10:51:33;;;;;;;10.10;5.50;;;7.10;99.90;;;;;;5040645;28;20453;-55
2022/01/10 10:54:04;;;;;;;5.77;3.27;;;7.10;99.90;;;;;;5043035;28;20917;-56
2022/01/10 10:56:37;;;;;;;9.30;4.77;;;7.10;99.90;;;;;;5043138;28;20437;-52
2022/01/10 10:59:04;;;;;;;7.70;4.63;;;7.10;99.90;;;;;;5043284;28;20456;-48
2022/01/10 11:01:31;;;;;;;9.77;4.77;;;7.10;99.90;;;;;;5043123;28;20451;-51
2022/01/10 11:03:57;;;;;;;13.30;4.00;;;7.10;99.90;;;;;;5043526;28;20495;-52
2022/01/10 11:06:26;;;;;;;7.80;4.23;;;7.10;99.90;;;;;;5043223;28;20510;-54
2022/01/10 11:08:53;;;;;;;12.10;4.77;;;7.10;99.90;;;;;;5043286;28;20547;-48
2022/01/10 11:11:22;;;;;;;6.33;3.60;;;7.10;99.90;;;;;;5042720;28;20453;-54
2022/01/10 11:13:50;;;;;;;13.53;6.23;;;7.10;99.90;;;;;;5043151;28;20452;-54
2022/01/10 11:16:17;;;;;;;14.57;5.63;;;7.10;99.90;;;;;;5043247;28;20571;-50
2022/01/10 11:18:44;;;;;;;9.60;5.17;;;7.10;99.90;;;;;;5043558;28;20476;-52
2022/01/10 11:21:13;;;;;;;7.00;4.50;;;7.10;99.90;;;;;;5043306;28;20563;-54
2022/01/10 11:23:41;;;;;;;19.30;5.10;;;7.10;99.90;;;;;;5043043;28;20439;-48
2022/01/10 11:26:12;;;;;;;8.73;5.73;;;7.20;99.90;;;;;;5042156;28;20559;-57
2022/01/10 11:28:49;;;;;;;11.20;5.53;;;7.20;99.90;;;;;;5042421;28;20499;-51
2022/01/10 11:31:22;;;;;;;7.60;4.53;;;7.20;99.90;;;;;;5041817;28;20477;-51
2022/01/10 11:33:51;;;;;;;8.87;4.83;;;7.20;99.90;;;;;;5042034;28;20486;-54
2022/01/10 11:36:23;;;;;;;13.10;5.20;;;7.30;99.90;;;;;;5041897;28;20941;-54
2022/01/10 11:38:53;;;;;;;10.10;4.90;;;7.30;99.90;;;;;;5042316;28;20468;-53
2022/01/10 11:41:22;;;;;;;6.17;4.23;;;7.30;99.90;;;;;;5041609;28;20451;-53
2022/01/10 11:43:57;;;;;;;8.77;4.60;;;7.40;99.90;;;;;;5040494;28;20463;-52
2022/01/10 11:46:26;;;;;;;12.57;6.23;;;7.40;99.90;;;;;;5036761;28;20527;-54
2022/01/10 11:49:02;;;;;;;10.90;3.60;;;7.40;99.90;;;;;;5036708;28;20477;-51
2022/01/10 11:51:32;;;;;;;9.30;4.83;;;7.40;99.90;;;;;;5036587;28;20457;-51
2022/01/10 11:54:13;;;;;;;10.73;3.40;;;7.40;99.90;;;;;;5036641;28;20473;-52
2022/01/10 11:56:42;;;;;;;8.23;4.30;;;7.40;99.90;;;;;;5036144;28;20430;-54
2022/01/10 11:59:22;;;;;;;7.50;4.07;;;7.40;99.90;;;;;;5036540;28;20609;-52
2022/01/10 12:01:53;;;;;;;4.60;2.70;;;7.50;99.90;;;;;;5036768;28;20438;-50
2022/01/10 12:04:21;;;;;;;11.43;2.70;;;7.50;99.90;;;;;;5035767;28;20564;-51
2022/01/10 12:06:50;;;;;;;4.07;3.27;;;7.40;99.90;;;;;;5036100;28;20463;-52
2022/01/10 12:09:18;;;;;;;8.93;2.90;;;7.40;99.90;;;;;;5036352;28;20524;-51
2022/01/10 12:11:46;;;;;;;5.10;2.87;;;7.40;99.90;;;;;;5036172;28;20480;-51
2022/01/10 12:14:14;;;;;;;15.37;4.40;;;7.40;99.90;;;;;;5036004;28;20467;-48
2022/01/10 12:16:42;;;;;;;9.67;4.33;;;7.50;99.90;;;;;;5036128;28;20477;-51
2022/01/10 12:19:10;;;;;;;5.10;3.20;;;7.50;99.90;;;;;;5035890;28;20855;-56
2022/01/10 12:21:37;;;;;;;5.60;3.10;;;7.60;99.90;;;;;;5035926;28;20484;-50
2022/01/10 12:24:06;;;;;;;6.63;3.33;;;7.70;99.90;;;;;;5036308;28;20455;-54
2022/01/10 12:26:33;;;;;;;4.40;2.67;;;7.70;99.90;;;;;;5036200;28;20440;-52
2022/01/10 12:29:01;;;;;;;3.30;2.37;;;7.70;99.90;;;;;;5035928;28;20480;-60
2022/01/10 12:31:31;;;;;;;3.10;2.30;;;7.60;99.90;;;;;;5036165;28;20461;-51
2022/01/10 12:34:00;;;;;;;6.07;3.93;;;7.60;99.90;;;;;;5036105;28;20538;-52
2022/01/10 12:36:29;;;;;;;7.83;2.90;;;7.60;99.90;;;;;;5035932;28;20456;-52
2022/01/10 12:38:58;;;;;;;8.67;3.80;;;7.70;99.90;;;;;;5035736;28;20502;-54
2022/01/10 12:41:26;;;;;;;18.23;3.40;;;7.60;99.90;;;;;;5035705;28;20465;-50
2022/01/10 12:43:53;;;;;;;6.80;3.87;;;7.60;99.90;;;;;;5035259;28;20449;-53
2022/01/10 12:46:20;;;;;;;4.20;2.40;;;7.60;99.90;;;;;;5035695;28;20441;-52
2022/01/10 12:48:50;;;;;;;6.23;2.80;;;7.60;99.90;;;;;;5035642;28;20454;-53
2022/01/10 12:51:18;;;;;;;4.77;3.20;;;7.60;99.90;;;;;;5035484;28;20542;-54
2022/01/10 12:53:48;;;;;;;4.07;3.03;;;7.70;99.90;;;;;;5035645;28;20445;-48
2022/01/10 12:56:16;;;;;;;4.27;2.50;;;7.60;99.90;;;;;;5035993;28;20528;-51
2022/01/10 12:58:43;;;;;;;3.90;2.70;;;7.60;99.90;;;;;;5035053;28;20480;-54
2022/01/10 13:01:11;;;;;;;3.73;2.27;;;7.60;99.90;;;;;;5043305;28;20471;-52
2022/01/10 13:03:38;;;;;;;4.13;2.97;;;7.60;99.90;;;;;;5038278;28;20526;-53